»·PEaware :: G-BMYG L88-KSBP

G-BMYG :: L88-KSBP

FLIGHT INFORMATION

Flight Status: Arrived
Operator: Privately registered:
United Kingdom
More flights under this callsign
Pilot: Craig S. (18127)
Aircraft: CESSNA 152 AEROBAT
(C152)
More flights by this aircraft type
Origin: L88 New Cuyama
United States
Destination: KSBP San Luis Co Regl
United States
More flights between these airports :: More routes between these airports
Route:
File this flight plan on PilotEdge
Remarks: CAT 2- Sorry for double plan.
Altitude:
(Current/Filed)
3,500ft
Speed:
(Current/Filed)
100kts
Departed: 01-Aug-18 01:19 PM
Arrived: 01-Aug-18 02:02 PM
Distance/Time
Traveled:
50nm/0:43
Distance/Time
To Go:
Arrived

Flight Plot

Page will automatically refresh every two minutes.


Map Options




Map Legend


Flown Route
Filed Route
Departure Airport
Arrival Airport
Navaid (VOR, NDB)
Fix

Horizontal Profiles

Position Reports

Time Latitude Longitude Heading Altitude Ground
Speed
01-Aug-18 13:15 34.942856 -119.690285 204 2152ft 0kts
01-Aug-18 13:16 34.942855 -119.690285 204 2152ft 0kts
01-Aug-18 13:17 34.942855 -119.690285 204 2152ft 0kts
01-Aug-18 13:18 34.942661 -119.690456 231 2153ft 0kts
01-Aug-18 13:19 34.942625 -119.691301 202 2150ft 8kts
01-Aug-18 13:20 34.938778 -119.682495 115 2236ft 79kts
01-Aug-18 13:21 34.925027 -119.665715 193 2895ft 73kts
01-Aug-18 13:22 34.929594 -119.687048 306 3406ft 85kts
01-Aug-18 13:23 34.944454 -119.711287 302 3483ft 91kts
01-Aug-18 13:24 34.955342 -119.730375 302 3420ft 49kts
01-Aug-18 13:25 34.959928 -119.747150 290 3349ft 68kts
01-Aug-18 13:26 34.970463 -119.770432 298 3502ft 84kts
01-Aug-18 13:27 34.984082 -119.795164 301 3519ft 88kts
01-Aug-18 13:28 34.988520 -119.803293 300 3466ft 89kts
01-Aug-18 13:29 34.988520 -119.803293 300 3466ft 89kts
01-Aug-18 13:30 34.988520 -119.803293 300 3466ft 89kts
01-Aug-18 13:31 34.988520 -119.803293 300 3466ft 89kts
01-Aug-18 13:32 34.995150 -119.816573 297 3437ft 90kts
01-Aug-18 13:33 35.006272 -119.843412 291 3469ft 86kts
01-Aug-18 13:34 35.017133 -119.869213 298 3429ft 83kts
01-Aug-18 13:35 35.028154 -119.893445 292 3496ft 82kts
01-Aug-18 13:36 35.037994 -119.919295 291 3537ft 84kts
01-Aug-18 13:37 35.046636 -119.946190 278 3504ft 85kts
01-Aug-18 13:38 35.054926 -119.973143 287 3486ft 85kts
01-Aug-18 13:39 35.063336 -119.999901 288 3471ft 86kts
01-Aug-18 13:40 35.073702 -120.025891 298 3471ft 85kts
01-Aug-18 13:41 35.088031 -120.048915 307 3522ft 84kts
01-Aug-18 13:42 35.102850 -120.070896 304 3549ft 84kts
01-Aug-18 13:43 35.113398 -120.096404 281 3551ft 89kts
01-Aug-18 13:44 35.119430 -120.126171 285 3570ft 92kts
01-Aug-18 13:45 35.126202 -120.157280 291 3518ft 96kts
01-Aug-18 13:46 35.138418 -120.185679 293 3479ft 93kts
01-Aug-18 13:47 35.147723 -120.213782 292 3472ft 90kts
01-Aug-18 13:48 35.156450 -120.242087 296 3553ft 89kts
01-Aug-18 13:49 35.165472 -120.270830 284 3575ft 91kts
01-Aug-18 13:50 35.170579 -120.301041 272 3569ft 95kts
01-Aug-18 13:51 35.171762 -120.333595 280 3477ft 91kts
01-Aug-18 13:52 35.174187 -120.362842 283 3470ft 88kts
01-Aug-18 13:53 35.180808 -120.390539 278 3431ft 85kts
01-Aug-18 13:54 35.183345 -120.419348 276 3336ft 85kts
01-Aug-18 13:55 35.185974 -120.448503 280 3104ft 85kts
01-Aug-18 13:56 35.187368 -120.477433 274 2948ft 86kts
01-Aug-18 13:57 35.190935 -120.507596 279 2529ft 91kts
01-Aug-18 13:58 35.193829 -120.538448 278 2029ft 92kts
01-Aug-18 13:59 35.198753 -120.567544 288 1619ft 86kts
01-Aug-18 14:00 35.210439 -120.592810 307 1072ft 85kts
01-Aug-18 14:01 35.221452 -120.613319 302 649ft 56kts
01-Aug-18 14:02 35.230850 -120.629693 303 307ft 61kts
01-Aug-18 14:03 35.237468 -120.639913 11 178ft 5kts
01-Aug-18 14:04 35.237486 -120.639908 11 178ft 0kts
01-Aug-18 14:05 35.237373 -120.636622 33 178ft 11kts
01-Aug-18 14:06 35.237841 -120.636863 279 178ft 0kts
01-Aug-18 14:07 35.237841 -120.636863 279 178ft 0kts
01-Aug-18 14:08 35.237841 -120.636863 279 178ft 0kts
01-Aug-18 14:09 35.237841 -120.636863 279 178ft 0kts
01-Aug-18 14:10 35.237841 -120.636863 279 178ft 0kts
01-Aug-18 14:11 35.237841 -120.636863 279 178ft 0kts
01-Aug-18 14:12 35.237841 -120.636863 279 178ft 0kts
01-Aug-18 14:13 35.237841 -120.636863 279 178ft 0kts
01-Aug-18 14:14 35.237841 -120.636863 279 178ft 0kts
01-Aug-18 14:15 35.237841 -120.636863 279 178ft 0kts
01-Aug-18 14:16 35.237841 -120.636863 279 178ft 0kts
01-Aug-18 14:17 35.237841 -120.636863 279 178ft 0kts

Navigation Log

Ident Type
1. L88 Airport
2. KSBP Airport